sensor_id;sensor_type;location;lat;lon;timestamp;pressure;altitude;pressure_sealevel;temperature;humidity
71996;BME280;59862;47.732;7.346;2023-06-01T00:00:17;98090.48;;;16.94;45.51
71996;BME280;59862;47.732;7.346;2023-06-01T00:02:45;98083.61;;;16.82;45.64
71996;BME280;59862;47.732;7.346;2023-06-01T00:05:12;98085.66;;;16.87;45.45
71996;BME280;59862;47.732;7.346;2023-06-01T00:07:40;98082.48;;;16.90;45.63
71996;BME280;59862;47.732;7.346;2023-06-01T00:10:08;98087.39;;;16.90;46.23
71996;BME280;59862;47.732;7.346;2023-06-01T00:12:35;98090.94;;;16.91;45.54
71996;BME280;59862;47.732;7.346;2023-06-01T00:15:04;98092.73;;;16.88;45.33
71996;BME280;59862;47.732;7.346;2023-06-01T00:17:31;98086.09;;;16.84;45.11
71996;BME280;59862;47.732;7.346;2023-06-01T00:19:59;98090.77;;;16.86;46.07
71996;BME280;59862;47.732;7.346;2023-06-01T00:22:28;98093.09;;;16.82;45.56
71996;BME280;59862;47.732;7.346;2023-06-01T00:24:57;98090.30;;;16.80;44.62
71996;BME280;59862;47.732;7.346;2023-06-01T00:27:25;98088.42;;;16.80;45.16
71996;BME280;59862;47.732;7.346;2023-06-01T00:29:52;98086.52;;;16.81;44.64
71996;BME280;59862;47.732;7.346;2023-06-01T00:32:19;98087.27;;;16.79;44.33
71996;BME280;59862;47.732;7.346;2023-06-01T00:34:47;98084.79;;;16.77;45.17
71996;BME280;59862;47.732;7.346;2023-06-01T00:37:14;98081.84;;;16.79;44.27
71996;BME280;59862;47.732;7.346;2023-06-01T00:39:42;98083.70;;;16.85;44.32
71996;BME280;59862;47.732;7.346;2023-06-01T00:42:09;98087.91;;;16.90;44.66
71996;BME280;59862;47.732;7.346;2023-06-01T00:44:37;98085.44;;;16.88;44.20
71996;BME280;59862;47.732;7.346;2023-06-01T00:47:05;98081.59;;;16.87;44.53
71996;BME280;59862;47.732;7.346;2023-06-01T00:49:34;98081.05;;;16.87;44.33
71996;BME280;59862;47.732;7.346;2023-06-01T00:52:02;98082.25;;;16.82;43.58
71996;BME280;59862;47.732;7.346;2023-06-01T00:54:29;98082.03;;;16.84;43.89
71996;BME280;59862;47.732;7.346;2023-06-01T00:56:57;98081.28;;;16.86;44.60
71996;BME280;59862;47.732;7.346;2023-06-01T00:59:24;98075.86;;;16.86;45.23
71996;BME280;59862;47.732;7.346;2023-06-01T01:01:52;98072.36;;;16.79;44.77
71996;BME280;59862;47.732;7.346;2023-06-01T01:04:19;98068.81;;;16.69;44.25
71996;BME280;59862;47.732;7.346;2023-06-01T01:07:09;98075.17;;;16.65;44.27
71996;BME280;59862;47.732;7.346;2023-06-01T01:10:39;98072.13;;;16.71;45.25
71996;BME280;59862;47.732;7.346;2023-06-01T01:12:36;98080.17;;;16.68;44.21
71996;BME280;59862;47.732;7.346;2023-06-01T01:15:12;98078.02;;;16.61;45.02
71996;BME280;59862;47.732;7.346;2023-06-01T01:17:40;98079.61;;;16.60;44.70
71996;BME280;59862;47.732;7.346;2023-06-01T01:20:22;98075.45;;;16.57;44.73
71996;BME280;59862;47.732;7.346;2023-06-01T01:23:05;98078.16;;;16.57;44.90
71996;BME280;59862;47.732;7.346;2023-06-01T01:25:57;98073.20;;;16.54;44.75
71996;BME280;59862;47.732;7.346;2023-06-01T01:28:47;98072.65;;;16.55;45.15
71996;BME280;59862;47.732;7.346;2023-06-01T01:31:22;98076.95;;;16.47;45.09
71996;BME280;59862;47.732;7.346;2023-06-01T01:33:48;98082.28;;;16.44;45.66
71996;BME280;59862;47.732;7.346;2023-06-01T01:36:17;98075.97;;;16.41;45.43
71996;BME280;59862;47.732;7.346;2023-06-01T01:38:45;98074.90;;;16.42;45.53
71996;BME280;59862;47.732;7.346;2023-06-01T01:41:12;98076.39;;;16.38;45.95
71996;BME280;59862;47.732;7.346;2023-06-01T01:43:40;98081.20;;;16.36;45.44
71996;BME280;59862;47.732;7.346;2023-06-01T01:46:23;98076.20;;;16.33;45.66
71996;BME280;59862;47.732;7.346;2023-06-01T01:49:10;98083.11;;;16.29;45.99
71996;BME280;59862;47.732;7.346;2023-06-01T01:51:50;98080.11;;;16.28;46.23
71996;BME280;59862;47.732;7.346;2023-06-01T01:54:17;98080.53;;;16.25;47.08
71996;BME280;59862;47.732;7.346;2023-06-01T01:56:46;98078.98;;;16.20;47.04
71996;BME280;59862;47.732;7.346;2023-06-01T01:59:15;98074.67;;;16.13;46.80
71996;BME280;59862;47.732;7.346;2023-06-01T02:01:44;98076.58;;;16.06;45.75
71996;BME280;59862;47.732;7.346;2023-06-01T02:04:13;98079.67;;;16.09;46.09
71996;BME280;59862;47.732;7.346;2023-06-01T02:06:41;98079.67;;;16.09;46.17
71996;BME280;59862;47.732;7.346;2023-06-01T02:09:08;98074.90;;;16.11;46.32
71996;BME280;59862;47.732;7.346;2023-06-01T02:11:36;98079.67;;;16.09;46.95
71996;BME280;59862;47.732;7.346;2023-06-01T02:14:04;98077.09;;;16.05;46.83
71996;BME280;59862;47.732;7.346;2023-06-01T02:16:32;98079.70;;;16.03;46.63
71996;BME280;59862;47.732;7.346;2023-06-01T02:18:59;98076.70;;;16.02;46.40
71996;BME280;59862;47.732;7.346;2023-06-01T02:21:29;98075.13;;;16.03;46.34
71996;BME280;59862;47.732;7.346;2023-06-01T02:23:57;98073.48;;;16.02;46.36
71996;BME280;59862;47.732;7.346;2023-06-01T02:26:26;98071.52;;;16.00;46.28
71996;BME280;59862;47.732;7.346;2023-06-01T02:28:54;98075.25;;;15.99;45.94
71996;BME280;59862;47.732;7.346;2023-06-01T02:31:21;98069.84;;;15.99;46.38
71996;BME280;59862;47.732;7.346;2023-06-01T02:33:49;98072.67;;;15.95;46.57
71996;BME280;59862;47.732;7.346;2023-06-01T02:36:16;98070.09;;;15.91;46.44
71996;BME280;59862;47.732;7.346;2023-06-01T02:38:44;98071.58;;;15.87;46.33
71996;BME280;59862;47.732;7.346;2023-06-01T02:41:12;98065.33;;;15.86;46.82
71996;BME280;59862;47.732;7.346;2023-06-01T02:43:40;98070.35;;;15.83;46.88
71996;BME280;59862;47.732;7.346;2023-06-01T02:46:07;98063.59;;;15.83;46.80
71996;BME280;59862;47.732;7.346;2023-06-01T02:48:35;98065.36;;;15.80;46.82
71996;BME280;59862;47.732;7.346;2023-06-01T02:51:02;98065.97;;;15.82;46.89
71996;BME280;59862;47.732;7.346;2023-06-01T02:53:30;98066.70;;;15.80;46.97
71996;BME280;59862;47.732;7.346;2023-06-01T02:55:57;98068.48;;;15.77;47.53
71996;BME280;59862;47.732;7.346;2023-06-01T02:58:25;98065.89;;;15.73;46.84
71996;BME280;59862;47.732;7.346;2023-06-01T03:00:54;98075.20;;;15.68;47.22
71996;BME280;59862;47.732;7.346;2023-06-01T03:03:27;98075.91;;;15.66;47.33
71996;BME280;59862;47.732;7.346;2023-06-01T03:05:54;98080.90;;;15.69;47.64
71996;BME280;59862;47.732;7.346;2023-06-01T03:08:22;98079.45;;;15.66;47.72
71996;BME280;59862;47.732;7.346;2023-06-01T03:10:51;98078.85;;;15.58;47.90
71996;BME280;59862;47.732;7.346;2023-06-01T03:13:19;98072.75;;;15.47;48.98
71996;BME280;59862;47.732;7.346;2023-06-01T03:15:47;98073.06;;;15.48;48.08
71996;BME280;59862;47.732;7.346;2023-06-01T03:18:15;98075.66;;;15.52;48.28
71996;BME280;59862;47.732;7.346;2023-06-01T03:20:43;98069.73;;;15.52;48.36
71996;BME280;59862;47.732;7.346;2023-06-01T03:23:10;98071.39;;;15.47;48.00
71996;BME280;59862;47.732;7.346;2023-06-01T03:25:38;98074.54;;;15.44;48.36
71996;BME280;59862;47.732;7.346;2023-06-01T03:28:05;98072.54;;;15.42;48.80
71996;BME280;59862;47.732;7.346;2023-06-01T03:30:32;98076.69;;;15.38;48.99
71996;BME280;59862;47.732;7.346;2023-06-01T03:33:00;98074.94;;;15.34;48.64
71996;BME280;59862;47.732;7.346;2023-06-01T03:35:27;98074.54;;;15.31;48.83
71996;BME280;59862;47.732;7.346;2023-06-01T03:37:55;98073.06;;;15.35;49.02
71996;BME280;59862;47.732;7.346;2023-06-01T03:40:22;98071.83;;;15.31;49.03
71996;BME280;59862;47.732;7.346;2023-06-01T03:42:49;98077.03;;;15.26;49.55
71996;BME280;59862;47.732;7.346;2023-06-01T03:45:17;98079.95;;;15.31;49.20
71996;BME280;59862;47.732;7.346;2023-06-01T03:47:45;98079.00;;;15.28;49.80
71996;BME280;59862;47.732;7.346;2023-06-01T03:50:12;98084.41;;;15.28;49.59
71996;BME280;59862;47.732;7.346;2023-06-01T03:52:40;98081.42;;;15.20;49.54
71996;BME280;59862;47.732;7.346;2023-06-01T03:55:08;98089.31;;;15.22;49.29
71996;BME280;59862;47.732;7.346;2023-06-01T03:57:37;98084.20;;;15.23;49.40
71996;BME280;59862;47.732;7.346;2023-06-01T04:00:05;98082.03;;;15.29;49.58
71996;BME280;59862;47.732;7.346;2023-06-01T04:05:36;98077.77;;;15.24;49.87
71996;BME280;59862;47.732;7.346;2023-06-01T04:08:04;98086.40;;;15.16;49.68
71996;BME280;59862;47.732;7.346;2023-06-01T04:10:31;98089.11;;;15.16;49.82
71996;BME280;59862;47.732;7.346;2023-06-01T04:12:58;98092.54;;;15.14;49.94
71996;BME280;59862;47.732;7.346;2023-06-01T04:15:26;98085.99;;;15.19;50.11
71996;BME280;59862;47.732;7.346;2023-06-01T04:17:54;98087.52;;;15.25;50.20
71996;BME280;59862;47.732;7.346;2023-06-01T04:20:21;98091.78;;;15.30;49.99
71996;BME280;59862;47.732;7.346;2023-06-01T04:22:49;98097.92;;;15.34;50.16
71996;BME280;59862;47.732;7.346;2023-06-01T04:25:17;98095.52;;;15.42;50.16
71996;BME280;59862;47.732;7.346;2023-06-01T04:27:46;98095.72;;;15.40;50.11
71996;BME280;59862;47.732;7.346;2023-06-01T04:30:15;98098.44;;;15.47;50.35
71996;BME280;59862;47.732;7.346;2023-06-01T04:32:43;98100.51;;;15.51;50.76
71996;BME280;59862;47.732;7.346;2023-06-01T04:35:12;98103.64;;;15.55;50.31
71996;BME280;59862;47.732;7.346;2023-06-01T04:37:40;98108.63;;;15.51;50.99
71996;BME280;59862;47.732;7.346;2023-06-01T04:40:09;98110.90;;;15.61;51.21
71996;BME280;59862;47.732;7.346;2023-06-01T04:42:40;98115.98;;;15.60;51.07
71996;BME280;59862;47.732;7.346;2023-06-01T04:45:09;98117.16;;;15.55;50.87
71996;BME280;59862;47.732;7.346;2023-06-01T04:47:37;98113.86;;;15.46;51.57
71996;BME280;59862;47.732;7.346;2023-06-01T04:50:08;98116.23;;;15.45;51.35
71996;BME280;59862;47.732;7.346;2023-06-01T04:52:37;98120.78;;;15.58;51.74
71996;BME280;59862;47.732;7.346;2023-06-01T04:55:05;98112.66;;;15.58;51.41
71996;BME280;59862;47.732;7.346;2023-06-01T04:57:37;98117.66;;;15.61;51.80
71996;BME280;59862;47.732;7.346;2023-06-01T05:00:07;98125.45;;;15.60;51.54
71996;BME280;59862;47.732;7.346;2023-06-01T05:02:37;98120.64;;;15.68;51.51
71996;BME280;59862;47.732;7.346;2023-06-01T05:05:06;98120.86;;;15.67;51.30
71996;BME280;59862;47.732;7.346;2023-06-01T05:07:36;98129.22;;;15.59;51.92
71996;BME280;59862;47.732;7.346;2023-06-01T05:10:06;98132.83;;;15.62;52.08
71996;BME280;59862;47.732;7.346;2023-06-01T05:12:35;98131.16;;;15.74;51.99
71996;BME280;59862;47.732;7.346;2023-06-01T05:15:08;98131.42;;;15.81;52.32
71996;BME280;59862;47.732;7.346;2023-06-01T05:17:37;98132.44;;;15.93;51.80
71996;BME280;59862;47.732;7.346;2023-06-01T05:20:06;98127.73;;;15.98;51.73
71996;BME280;59862;47.732;7.346;2023-06-01T05:22:35;98134.20;;;15.90;51.08
71996;BME280;59862;47.732;7.346;2023-06-01T05:25:03;98124.09;;;15.95;52.00
71996;BME280;59862;47.732;7.346;2023-06-01T05:27:32;98129.28;;;15.97;51.42
71996;BME280;59862;47.732;7.346;2023-06-01T05:30:00;98126.55;;;16.03;51.75
71996;BME280;59862;47.732;7.346;2023-06-01T05:32:27;98132.55;;;16.12;52.20
71996;BME280;59862;47.732;7.346;2023-06-01T05:34:55;98132.75;;;16.17;51.43
71996;BME280;59862;47.732;7.346;2023-06-01T05:37:23;98131.14;;;16.25;51.44
71996;BME280;59862;47.732;7.346;2023-06-01T05:39:50;98129.66;;;16.13;51.25
71996;BME280;59862;47.732;7.346;2023-06-01T05:42:18;98130.75;;;16.21;51.89
71996;BME280;59862;47.732;7.346;2023-06-01T05:44:45;98129.72;;;16.16;51.04
71996;BME280;59862;47.732;7.346;2023-06-01T05:47:12;98131.62;;;16.15;51.57
71996;BME280;59862;47.732;7.346;2023-06-01T05:49:40;98136.36;;;16.26;51.67
71996;BME280;59862;47.732;7.346;2023-06-01T05:52:08;98130.08;;;16.32;51.23
71996;BME280;59862;47.732;7.346;2023-06-01T05:54:36;98131.01;;;16.29;51.47
71996;BME280;59862;47.732;7.346;2023-06-01T05:57:04;98134.27;;;16.28;51.32
71996;BME280;59862;47.732;7.346;2023-06-01T05:59:32;98135.91;;;16.29;51.54
71996;BME280;59862;47.732;7.346;2023-06-01T06:01:59;98127.42;;;16.41;51.48
71996;BME280;59862;47.732;7.346;2023-06-01T06:04:26;98134.31;;;16.59;51.55
71996;BME280;59862;47.732;7.346;2023-06-01T06:06:54;98133.52;;;16.68;51.17
71996;BME280;59862;47.732;7.346;2023-06-01T06:09:21;98134.22;;;16.73;50.69
71996;BME280;59862;47.732;7.346;2023-06-01T06:11:49;98131.38;;;16.77;51.05
71996;BME280;59862;47.732;7.346;2023-06-01T06:14:17;98136.46;;;16.82;50.51
71996;BME280;59862;47.732;7.346;2023-06-01T06:16:44;98147.59;;;16.83;50.56
71996;BME280;59862;47.732;7.346;2023-06-01T06:19:12;98140.01;;;16.83;50.08
71996;BME280;59862;47.732;7.346;2023-06-01T06:21:41;98138.75;;;16.94;50.78
71996;BME280;59862;47.732;7.346;2023-06-01T06:24:09;98143.23;;;16.98;50.15
71996;BME280;59862;47.732;7.346;2023-06-01T06:26:36;98139.77;;;17.00;49.97
71996;BME280;59862;47.732;7.346;2023-06-01T06:29:04;98146.92;;;17.03;50.46
71996;BME280;59862;47.732;7.346;2023-06-01T06:31:31;98151.35;;;17.22;50.94
71996;BME280;59862;47.732;7.346;2023-06-01T06:33:59;98149.66;;;17.28;49.67
71996;BME280;59862;47.732;7.346;2023-06-01T06:36:27;98149.22;;;17.40;50.00
71996;BME280;59862;47.732;7.346;2023-06-01T06:38:55;98151.78;;;17.44;50.25
71996;BME280;59862;47.732;7.346;2023-06-01T06:41:22;98149.67;;;17.46;49.58
71996;BME280;59862;47.732;7.346;2023-06-01T06:43:50;98155.02;;;17.43;49.84
71996;BME280;59862;47.732;7.346;2023-06-01T06:46:18;98153.65;;;17.59;50.32
71996;BME280;59862;47.732;7.346;2023-06-01T06:48:46;98156.83;;;17.74;50.26
71996;BME280;59862;47.732;7.346;2023-06-01T06:51:13;98148.95;;;17.91;50.00
71996;BME280;59862;47.732;7.346;2023-06-01T06:53:40;98152.86;;;17.95;48.99
71996;BME280;59862;47.732;7.346;2023-06-01T06:56:08;98154.22;;;18.04;49.05
71996;BME280;59862;47.732;7.346;2023-06-01T06:58:36;98159.78;;;18.18;49.09
71996;BME280;59862;47.732;7.346;2023-06-01T07:01:03;98155.47;;;18.19;48.90
71996;BME280;59862;47.732;7.346;2023-06-01T07:03:32;98159.55;;;18.19;49.24
71996;BME280;59862;47.732;7.346;2023-06-01T07:05:59;98161.98;;;18.28;48.07
71996;BME280;59862;47.732;7.346;2023-06-01T07:08:27;98161.49;;;18.40;48.85
71996;BME280;59862;47.732;7.346;2023-06-01T07:10:54;98165.27;;;18.48;48.39
71996;BME280;59862;47.732;7.346;2023-06-01T07:13:22;98164.05;;;18.62;48.69
71996;BME280;59862;47.732;7.346;2023-06-01T07:15:50;98168.71;;;18.73;47.90
71996;BME280;59862;47.732;7.346;2023-06-01T07:18:17;98163.29;;;18.64;47.22
71996;BME280;59862;47.732;7.346;2023-06-01T07:20:44;98164.75;;;18.78;48.22
71996;BME280;59862;47.732;7.346;2023-06-01T07:23:12;98163.75;;;18.90;47.78
71996;BME280;59862;47.732;7.346;2023-06-01T07:25:41;98158.14;;;19.06;47.89
71996;BME280;59862;47.732;7.346;2023-06-01T07:28:08;98157.23;;;19.12;47.04
71996;BME280;59862;47.732;7.346;2023-06-01T07:30:36;98154.03;;;19.15;46.19
71996;BME280;59862;47.732;7.346;2023-06-01T07:33:04;98159.36;;;19.22;47.12
71996;BME280;59862;47.732;7.346;2023-06-01T07:35:31;98166.27;;;19.15;45.85
71996;BME280;59862;47.732;7.346;2023-06-01T07:38:00;98165.81;;;19.30;46.83
71996;BME280;59862;47.732;7.346;2023-06-01T07:40:29;98165.98;;;19.35;46.13
71996;BME280;59862;47.732;7.346;2023-06-01T07:42:57;98162.91;;;19.43;45.70
71996;BME280;59862;47.732;7.346;2023-06-01T07:45:24;98163.45;;;19.65;47.02
71996;BME280;59862;47.732;7.346;2023-06-01T07:47:52;98165.29;;;19.86;45.43
71996;BME280;59862;47.732;7.346;2023-06-01T07:50:20;98163.36;;;20.09;45.01
71996;BME280;59862;47.732;7.346;2023-06-01T07:52:49;98156.34;;;20.25;44.81
71996;BME280;59862;47.732;7.346;2023-06-01T07:55:18;98155.13;;;20.44;44.64
71996;BME280;59862;47.732;7.346;2023-06-01T07:57:46;98155.50;;;20.64;45.33
71996;BME280;59862;47.732;7.346;2023-06-01T08:00:15;98152.73;;;20.76;44.12
71996;BME280;59862;47.732;7.346;2023-06-01T08:02:44;98163.87;;;21.02;43.46
71996;BME280;59862;47.732;7.346;2023-06-01T08:05:12;98151.79;;;21.12;44.36
71996;BME280;59862;47.732;7.346;2023-06-01T08:07:41;98161.91;;;21.29;43.66
71996;BME280;59862;47.732;7.346;2023-06-01T08:10:09;98159.61;;;21.06;43.02
71996;BME280;59862;47.732;7.346;2023-06-01T08:12:36;98160.39;;;21.04;43.20
71996;BME280;59862;47.732;7.346;2023-06-01T08:15:04;98157.55;;;21.13;44.16
71996;BME280;59862;47.732;7.346;2023-06-01T08:17:32;98158.84;;;21.42;42.42
71996;BME280;59862;47.732;7.346;2023-06-01T08:20:00;98162.39;;;21.59;41.58
71996;BME280;59862;47.732;7.346;2023-06-01T08:22:29;98159.00;;;21.52;41.74
71996;BME280;59862;47.732;7.346;2023-06-01T08:24:56;98154.06;;;21.51;41.98
71996;BME280;59862;47.732;7.346;2023-06-01T08:27:24;98153.99;;;21.82;41.60
71996;BME280;59862;47.732;7.346;2023-06-01T08:29:53;98155.24;;;22.10;41.81
71996;BME280;59862;47.732;7.346;2023-06-01T08:32:20;98153.67;;;21.95;41.41
71996;BME280;59862;47.732;7.346;2023-06-01T08:34:48;98151.38;;;22.28;42.27
71996;BME280;59862;47.732;7.346;2023-06-01T08:37:17;98163.14;;;22.52;40.44
71996;BME280;59862;47.732;7.346;2023-06-01T08:39:44;98150.64;;;22.81;39.91
71996;BME280;59862;47.732;7.346;2023-06-01T08:45:13;98149.47;;;23.27;39.36
71996;BME280;59862;47.732;7.346;2023-06-01T08:47:41;98148.45;;;23.33;38.30
71996;BME280;59862;47.732;7.346;2023-06-01T08:50:10;98149.37;;;23.47;39.57
71996;BME280;59862;47.732;7.346;2023-06-01T08:52:39;98147.88;;;23.66;39.47
71996;BME280;59862;47.732;7.346;2023-06-01T08:55:08;98147.48;;;23.91;38.58
71996;BME280;59862;47.732;7.346;2023-06-01T08:57:36;98143.91;;;23.91;38.49
71996;BME280;59862;47.732;7.346;2023-06-01T09:00:06;98145.44;;;24.11;37.51
71996;BME280;59862;47.732;7.346;2023-06-01T09:02:34;98139.78;;;24.28;38.20
71996;BME280;59862;47.732;7.346;2023-06-01T09:05:02;98141.27;;;24.58;37.48
71996;BME280;59862;47.732;7.346;2023-06-01T09:07:31;98143.84;;;24.87;37.25
71996;BME280;59862;47.732;7.346;2023-06-01T09:09:59;98140.30;;;25.07;36.56
71996;BME280;59862;47.732;7.346;2023-06-01T09:12:29;98143.84;;;24.97;36.01
71996;BME280;59862;47.732;7.346;2023-06-01T09:15:15;98140.59;;;25.05;36.49
71996;BME280;59862;47.732;7.346;2023-06-01T09:17:44;98141.94;;;25.10;36.57
71996;BME280;59862;47.732;7.346;2023-06-01T09:20:14;98139.76;;;25.17;36.54
71996;BME280;59862;47.732;7.346;2023-06-01T09:22:48;98147.73;;;25.26;36.21
71996;BME280;59862;47.732;7.346;2023-06-01T09:25:14;98138.69;;;25.21;35.78
71996;BME280;59862;47.732;7.346;2023-06-01T09:30:18;98134.27;;;25.30;36.18
71996;BME280;59862;47.732;7.346;2023-06-01T09:32:47;98130.70;;;25.24;37.64
71996;BME280;59862;47.732;7.346;2023-06-01T09:35:44;98134.33;;;25.42;35.64
71996;BME280;59862;47.732;7.346;2023-06-01T09:38:21;98136.78;;;25.44;35.81
71996;BME280;59862;47.732;7.346;2023-06-01T09:41:00;98131.27;;;25.31;35.72
71996;BME280;59862;47.732;7.346;2023-06-01T09:43:29;98129.59;;;25.40;35.94
71996;BME280;59862;47.732;7.346;2023-06-01T09:46:05;98126.89;;;25.45;35.33
71996;BME280;59862;47.732;7.346;2023-06-01T09:48:33;98126.84;;;25.73;35.75
71996;BME280;59862;47.732;7.346;2023-06-01T09:51:01;98125.44;;;25.96;34.02
71996;BME280;59862;47.732;7.346;2023-06-01T09:53:40;98127.32;;;26.08;35.21
71996;BME280;59862;47.732;7.346;2023-06-01T09:56:08;98120.72;;;26.16;33.70
71996;BME280;59862;47.732;7.346;2023-06-01T09:58:36;98126.93;;;26.47;34.22
71996;BME280;59862;47.732;7.346;2023-06-01T10:01:07;98122.59;;;26.90;34.69
71996;BME280;59862;47.732;7.346;2023-06-01T10:03:35;98119.77;;;27.70;32.32
71996;BME280;59862;47.732;7.346;2023-06-01T10:06:05;98126.12;;;28.70;30.66
71996;BME280;59862;47.732;7.346;2023-06-01T10:08:33;98124.09;;;30.42;28.42
71996;BME280;59862;47.732;7.346;2023-06-01T10:11:02;98120.61;;;31.35;27.06
71996;BME280;59862;47.732;7.346;2023-06-01T10:13:30;98117.41;;;31.86;26.25
71996;BME280;59862;47.732;7.346;2023-06-01T10:15:58;98113.72;;;31.99;26.62
71996;BME280;59862;47.732;7.346;2023-06-01T10:18:26;98111.75;;;32.30;25.96
71996;BME280;59862;47.732;7.346;2023-06-01T10:20:53;98113.86;;;32.05;25.76
71996;BME280;59862;47.732;7.346;2023-06-01T10:23:23;98109.16;;;32.42;24.75
71996;BME280;59862;47.732;7.346;2023-06-01T10:25:52;98103.05;;;32.62;24.88
71996;BME280;59862;47.732;7.346;2023-06-01T10:28:22;98113.69;;;33.06;25.21
71996;BME280;59862;47.732;7.346;2023-06-01T10:31:54;98118.02;;;34.32;23.67
71996;BME280;59862;47.732;7.346;2023-06-01T10:33:54;98108.83;;;33.77;23.56
71996;BME280;59862;47.732;7.346;2023-06-01T10:36:23;98104.47;;;33.50;24.44
71996;BME280;59862;47.732;7.346;2023-06-01T10:41:39;98107.95;;;34.63;23.14
71996;BME280;59862;47.732;7.346;2023-06-01T10:44:06;98100.14;;;34.92;22.69
71996;BME280;59862;47.732;7.346;2023-06-01T10:46:35;98103.70;;;35.42;21.92
71996;BME280;59862;47.732;7.346;2023-06-01T10:49:04;98098.52;;;34.47;22.96
71996;BME280;59862;47.732;7.346;2023-06-01T10:51:32;98095.42;;;34.25;23.11
71996;BME280;59862;47.732;7.346;2023-06-01T10:56:47;98094.41;;;34.15;23.12
71996;BME280;59862;47.732;7.346;2023-06-01T10:59:16;98089.80;;;35.07;22.11
71996;BME280;59862;47.732;7.346;2023-06-01T11:01:44;98090.84;;;35.29;21.76
71996;BME280;59862;47.732;7.346;2023-06-01T11:04:13;98085.89;;;35.67;21.98
71996;BME280;59862;47.732;7.346;2023-06-01T11:06:42;98086.52;;;36.36;20.54
71996;BME280;59862;47.732;7.346;2023-06-01T11:09:11;98082.55;;;36.31;21.06
71996;BME280;59862;47.732;7.346;2023-06-01T11:14:26;98074.50;;;35.99;21.84
71996;BME280;59862;47.732;7.346;2023-06-01T11:17:24;98080.91;;;36.12;21.32
71996;BME280;59862;47.732;7.346;2023-06-01T11:19:27;98074.71;;;35.61;21.15
71996;BME280;59862;47.732;7.346;2023-06-01T11:22:00;98076.61;;;36.14;21.43
71996;BME280;59862;47.732;7.346;2023-06-01T11:24:37;98072.78;;;36.61;21.17
71996;BME280;59862;47.732;7.346;2023-06-01T11:27:09;98078.36;;;36.91;20.51
71996;BME280;59862;47.732;7.346;2023-06-01T11:29:37;98068.93;;;36.29;19.85
71996;BME280;59862;47.732;7.346;2023-06-01T11:32:06;98070.37;;;35.04;21.46
71996;BME280;59862;47.732;7.346;2023-06-01T11:34:35;98061.28;;;35.82;20.90
71996;BME280;59862;47.732;7.346;2023-06-01T11:37:18;98061.36;;;36.36;20.84
71996;BME280;59862;47.732;7.346;2023-06-01T11:39:42;98062.50;;;37.01;19.97
71996;BME280;59862;47.732;7.346;2023-06-01T11:42:14;98058.77;;;36.13;20.80
71996;BME280;59862;47.732;7.346;2023-06-01T11:44:57;98052.26;;;36.39;21.38
71996;BME280;59862;47.732;7.346;2023-06-01T11:47:15;98047.94;;;37.36;20.11
71996;BME280;59862;47.732;7.346;2023-06-01T11:49:45;98055.42;;;37.81;19.75
71996;BME280;59862;47.732;7.346;2023-06-01T11:52:15;98049.70;;;36.70;20.53
71996;BME280;59862;47.732;7.346;2023-06-01T11:54:44;98043.95;;;37.31;19.69
71996;BME280;59862;47.732;7.346;2023-06-01T11:57:12;98040.52;;;37.15;21.02
71996;BME280;59862;47.732;7.346;2023-06-01T11:59:46;98044.03;;;37.89;20.32
71996;BME280;59862;47.732;7.346;2023-06-01T12:02:25;98047.08;;;37.63;19.96
71996;BME280;59862;47.732;7.346;2023-06-01T12:05:06;98036.00;;;37.33;20.30
71996;BME280;59862;47.732;7.346;2023-06-01T12:07:31;98032.36;;;37.16;19.54
71996;BME280;59862;47.732;7.346;2023-06-01T12:09:59;98026.12;;;37.01;19.74
71996;BME280;59862;47.732;7.346;2023-06-01T12:12:28;98028.80;;;35.83;21.20
71996;BME280;59862;47.732;7.346;2023-06-01T12:14:56;98021.14;;;35.92;21.02
71996;BME280;59862;47.732;7.346;2023-06-01T12:17:24;98027.28;;;36.82;20.82
71996;BME280;59862;47.732;7.346;2023-06-01T12:19:52;98017.97;;;37.52;19.72
71996;BME280;59862;47.732;7.346;2023-06-01T12:22:19;98022.78;;;37.88;19.96
71996;BME280;59862;47.732;7.346;2023-06-01T12:24:46;98011.91;;;37.22;19.99
71996;BME280;59862;47.732;7.346;2023-06-01T12:27:17;98010.34;;;37.58;19.61
71996;BME280;59862;47.732;7.346;2023-06-01T12:29:46;98005.11;;;37.57;19.98
71996;BME280;59862;47.732;7.346;2023-06-01T12:32:16;98011.66;;;36.87;19.92
71996;BME280;59862;47.732;7.346;2023-06-01T12:35:01;98004.31;;;37.72;19.20
71996;BME280;59862;47.732;7.346;2023-06-01T12:37:16;98000.78;;;37.81;19.22
71996;BME280;59862;47.732;7.346;2023-06-01T12:39:52;98002.71;;;38.18;19.44
71996;BME280;59862;47.732;7.346;2023-06-01T12:42:34;98009.48;;;39.69;18.39
71996;BME280;59862;47.732;7.346;2023-06-01T12:45:07;97999.89;;;39.60;18.77
71996;BME280;59862;47.732;7.346;2023-06-01T12:47:40;98004.16;;;39.64;17.49
71996;BME280;59862;47.732;7.346;2023-06-01T12:50:11;97992.58;;;38.89;18.49
71996;BME280;59862;47.732;7.346;2023-06-01T12:52:40;97986.39;;;39.37;18.63
71996;BME280;59862;47.732;7.346;2023-06-01T12:55:11;97981.70;;;39.86;17.28
71996;BME280;59862;47.732;7.346;2023-06-01T12:57:39;97985.66;;;40.04;17.82
71996;BME280;59862;47.732;7.346;2023-06-01T13:00:08;97982.41;;;39.93;17.44
71996;BME280;59862;47.732;7.346;2023-06-01T13:02:35;97979.25;;;40.83;16.92
71996;BME280;59862;47.732;7.346;2023-06-01T13:05:03;97981.73;;;41.37;16.62
71996;BME280;59862;47.732;7.346;2023-06-01T13:07:32;97973.24;;;40.58;17.17
71996;BME280;59862;47.732;7.346;2023-06-01T13:09:59;97970.32;;;39.79;17.20
71996;BME280;59862;47.732;7.346;2023-06-01T13:12:27;97972.09;;;40.36;17.74
71996;BME280;59862;47.732;7.346;2023-06-01T13:14:54;97967.38;;;40.57;17.20
71996;BME280;59862;47.732;7.346;2023-06-01T13:17:23;97961.45;;;41.41;16.31
71996;BME280;59862;47.732;7.346;2023-06-01T13:19:53;97963.00;;;41.72;16.43
71996;BME280;59862;47.732;7.346;2023-06-01T13:22:21;97958.94;;;42.10;16.10
71996;BME280;59862;47.732;7.346;2023-06-01T13:24:48;97955.91;;;40.69;16.82
71996;BME280;59862;47.732;7.346;2023-06-01T13:27:16;97961.26;;;41.40;16.61